METAR stanice u blizini

 

LYBE - Beograd / Surčin, Srbija
Ažurirano: 05/07/2020 20:30
Vedro
Vedro
 Pravac vetra SZ
Vetar: SZ 13 km/h
Temperatura: 24°C
Tačka rose: 15°C
Vlažnost: 57%
Pritisak: 1013 hPa
Pregled: Vedro
Vidljivost: greater than 10 km
2020/07/05 18:30 LYBE 051830Z 32007KT CAVOK 24/15 Q1013 NOSIG
LYBT - Beograd / Batajnica, Srbija
Ažurirano: 05/07/2020 20:30
Vedro
Vedro
 Pravac vetra ZSZ
Vetar: ZSZ 9 km/h
Temperatura: 24°C
Tačka rose: 15°C
Vlažnost: 57%
Pritisak: 1012 hPa
Pregled: Vedro
Vidljivost: greater than 10 km
2020/07/05 18:30 LYBT 051830Z 30005KT CAVOK 24/15 Q1012 NOSIG
LYVR - Vršac, Srbija
Ažurirano: 05/07/2020 20:30
Vedro
Vedro
 Pravac vetra SI
Vetar: SI 7 km/h
Temperatura: 23°C
Tačka rose: 18°C
Vlažnost: 74%
Pritisak: 1012 hPa
Pregled: Vedro
Vidljivost: greater than 10 km
2020/07/05 18:30 LYVR 051830Z AUTO 05004KT CAVOK 23/18 Q1012
 
LYKV - Lađevci, Srbija
Ažurirano: 05/07/2020 20:30
Few Clouds
Few Clouds
 Pravac vetra SZ
Vetar: SZ 7 km/h
Temperatura: 25°C
Tačka rose: 17°C
Vlažnost: 61%
Pritisak: 1013 hPa
Oblaci: Few Clouds
Vidljivost: 10 km
Cloud details: Few Clouds 1524 m
2020/07/05 18:30 LYKV 051830Z 31004KT 290V350 9999 FEW050 25/17 Q1013 NOSIG
LYNI - Niš, Srbija
Ažurirano: 05/07/2020 20:30
Few Clouds
Few Clouds
 Pravac vetra I
Vetar: I 9 km/h
Temperatura: 23°C
Tačka rose: 19°C
Vlažnost: 78%
Pritisak: 1012 hPa
Oblaci: Few Clouds
Vidljivost: 10 km
Cloud details: Few Clouds 1829 m
2020/07/05 18:30 LYNI 051830Z 08005KT 9999 FEW060 23/19 Q1012 NOSIG
BKPR - Priština, Srbija
Ažurirano: 05/07/2020 20:30
Partly Cloudy
Partly Cloudy
 Pravac vetra S
Vetar: S 9 km/h
Temperatura: 22°C
Tačka rose: 14°C
Vlažnost: 61%
Pritisak: 1014 hPa
Oblaci: Partly Cloudy
Vidljivost: 10 km
Cloud details: Few Clouds 914 m
Partly Cloudy 3658 m
2020/07/05 18:30 BKPR 051830Z 01005KT 9999 FEW030CB SCT120 22/14 Q1014 NOSIG
 
LHPP - Pecs / Pogany, Hungary
Ažurirano: 05/07/2020 19:45
Vedro
Vedro
 Pravac vetra S
Vetar: S 6 km/h
Temperatura: 28°C
Heat Index: 28°C
Tačka rose: 14°C
Vlažnost: 42%
Pritisak: 1014 hPa
Pregled: Vedro
Vidljivost: greater than 10 km
2020/07/05 17:45 LHPP 051745Z 35003KT CAVOK 28/14 Q1014
LHUD - Szeged, Hungary
Ažurirano: 04/07/2019 01:45
NOT Current
Vedro
Vedro
 Pravac vetra S
Vetar: S 7 km/h
Temperatura: 18°C
Tačka rose: 13°C
Vlažnost: 73%
Pritisak: 1019 hPa
Pregled: Vedro
Vidljivost: greater than 10 km
2019/07/03 23:45 LHUD 032345Z 35004KT CAVOK 18/13 Q1019
LRTR - Timisoara, Romania
Ažurirano: 05/07/2020 20:30
Vedro
Vedro
 Pravac vetra SSI
Vetar: SSI 7 km/h
Temperatura: 24°C
Tačka rose: 19°C
Vlažnost: 74%
Pritisak: 1012 hPa
Pregled: Vedro
Vidljivost: greater than 10 km
2020/07/05 18:30 LRTR 051830Z 02004KT CAVOK 24/19 Q1012
 
LRCV - Craiova, Romania
Ažurirano: 05/07/2020 20:30
Nearby thunderstorm, Few clouds
Nearby thunderstorm, Few clouds
 Pravac vetra S
Vetar: S 13 km/h
Temperatura: 24°C
Tačka rose: 16°C
Vlažnost: 61%
Pritisak: 1011 hPa
Pregled: Nearby Thunderstorm
Oblaci: Few Clouds
Vidljivost: 10 km
Cloud details: Few Clouds 1829 m
2020/07/05 18:30 LRCV 051830Z 36007KT 9999 VCTS FEW060CB 24/16 Q1011 RETS
LBSF - Sofia, Bulgaria
Ažurirano: 05/07/2020 20:30
Few Clouds
Few Clouds
 Pravac vetra SZ
Vetar: SZ 7 km/h
Temperatura: 21°C
Tačka rose: 17°C
Vlažnost: 78%
Pritisak: 1013 hPa
Oblaci: Few Clouds
Vidljivost: 10 km
Cloud details: Few Clouds 1676 m
2020/07/05 18:30 LBSF 051830Z 31004KT 260V340 9999 FEW055 21/17 Q1013 NOSIG
LWSK - Skoplje, Makedonija
Ažurirano: 05/07/2020 20:30
Mostly Cloudy
Mostly Cloudy
 Pravac vetra Z
Vetar: Z 6 km/h
Temperatura: 24°C
Tačka rose: 18°C
Vlažnost: 69%
Pritisak: 1012 hPa
Oblaci: Mostly Cloudy
Vidljivost: 10 km
Cloud details: Few Clouds 914 m
Few Clouds 1372 m
Mostly Cloudy 2743 m
2020/07/05 18:30 LWSK 051830Z 28003KT 9999 FEW030 FEW045TCU BKN090 24/18 Q1012 NOSIG
 
LYPG - Podgorica, Crna Gora
Ažurirano: 05/07/2020 20:30
Few Clouds
Few Clouds
 Pravac vetra SSI
Vetar: SSI 19 km/h
Temperatura: 30°C
Tačka rose: 13°C
Vlažnost: 35%
Pritisak: 1009 hPa
Oblaci: Few Clouds
Vidljivost: 10 km
Cloud details: Few Clouds 1524 m
2020/07/05 18:30 LYPG 051830Z 03010KT 9999 FEW050 30/13 Q1009 NOSIG
LQSA - Sarajevo, Bosna i Hercegovina
Ažurirano: 05/07/2020 16:30
NOT Current
Mostly Cloudy
Mostly Cloudy
 Pravac vetra SSZ
Vetar: SSZ 11 km/h
Temperatura: 25°C
Tačka rose: 16°C
Vlažnost: 57%
Pritisak: 1016 hPa
Oblaci: Mostly Cloudy
Vidljivost: 10 km
Cloud details: Few Clouds 1219 m
Mostly Cloudy 1524 m
2020/07/05 14:30 LQSA 051430Z 34006KT 320V030 9999 FEW040TCU BKN050 25/16 Q1016 TEMPO SHRA
LDOS - Osijek, Hrvatksa
Ažurirano: 05/07/2020 20:30
Vedro
Vedro
 Pravac vetra SSI
Vetar: SSI 4 km/h
Temperatura: 26°C
Tačka rose: 13°C
Vlažnost: 45%
Pritisak: 1013 hPa
Pregled: Vedro
Vidljivost: greater than 10 km
2020/07/05 18:30 LDOS 051830Z 03002KT CAVOK 26/13 Q1013